createdAt,value
2019-06-07T00:00:39.400Z,9.00
2019-06-07T00:03:04.723Z,8.30
2019-06-07T00:05:35.722Z,7.83
2019-06-07T00:08:11.083Z,8.47
2019-06-07T00:10:38.630Z,7.80
2019-06-07T00:13:09.746Z,8.10
2019-06-07T00:15:40.343Z,8.30
2019-06-07T00:18:14.379Z,7.73
2019-06-07T00:20:43.116Z,7.00
2019-06-07T00:23:15.759Z,6.90
2019-06-07T00:25:45.776Z,7.23
2019-06-07T00:28:17.307Z,7.83
2019-06-07T00:30:52.173Z,7.43
2019-06-07T00:33:24.095Z,8.03
2019-06-07T00:35:52.641Z,7.90
2019-06-07T00:38:22.998Z,7.20
2019-06-07T00:40:53.437Z,7.63
2019-06-07T00:43:28.259Z,7.80
2019-06-07T00:45:56.232Z,7.53
2019-06-07T00:48:32.374Z,7.50
2019-06-07T00:50:58.673Z,7.97
2019-06-07T00:53:32.425Z,7.90
2019-06-07T00:56:01.497Z,7.63
2019-06-07T00:58:31.886Z,8.13
2019-06-07T01:01:02.277Z,7.27
2019-06-07T01:03:33.026Z,7.20
2019-06-07T01:06:03.383Z,6.30
2019-06-07T01:08:34.147Z,7.03
2019-06-07T01:11:04.552Z,8.17
2019-06-07T01:13:34.915Z,6.17
2019-06-07T01:16:05.286Z,7.53
2019-06-07T01:18:41.211Z,6.67
2019-06-07T01:21:07.790Z,6.60
2019-06-07T01:26:10.560Z,6.87
2019-06-07T01:28:41.990Z,6.17
2019-06-07T01:31:12.680Z,6.10
2019-06-07T01:33:51.006Z,6.87
2019-06-07T01:36:17.911Z,5.83
2019-06-07T01:38:47.549Z,6.17
2019-06-07T01:41:22.062Z,4.90
2019-06-07T01:43:50.691Z,5.53
2019-06-07T01:46:23.405Z,5.10
2019-06-07T01:48:53.135Z,5.07
2019-06-07T01:51:24.500Z,4.90
2019-06-07T01:54:26.181Z,4.70
2019-06-07T01:56:29.609Z,3.83
2019-06-07T01:58:59.713Z,3.27
2019-06-07T02:01:35.206Z,3.40
2019-06-07T02:04:03.459Z,2.80
2019-06-07T02:06:33.841Z,3.00
2019-06-07T02:09:06.759Z,2.90
2019-06-07T02:11:37.123Z,2.50
2019-06-07T02:14:07.929Z,2.40
2019-06-07T02:16:38.703Z,2.57
2019-06-07T02:19:09.739Z,2.20
2019-06-07T02:21:40.242Z,2.50
2019-06-07T02:24:10.826Z,2.37
2019-06-07T02:26:41.652Z,2.53
2019-06-07T02:29:12.026Z,2.70
2019-06-07T02:31:43.122Z,2.97
2019-06-07T02:34:13.451Z,2.40
2019-06-07T02:36:44.205Z,2.80
2019-06-07T02:39:15.974Z,2.73
2019-06-07T02:41:46.646Z,2.60
2019-06-07T02:44:17.280Z,2.57
2019-06-07T02:46:49.888Z,3.50
2019-06-07T02:49:19.829Z,3.40
2019-06-07T02:51:50.252Z,3.13
2019-06-07T02:54:21.177Z,3.00
2019-06-07T02:56:58.827Z,2.63
2019-06-07T02:59:46.948Z,3.30
2019-06-07T03:01:56.291Z,3.23
2019-06-07T03:04:29.003Z,3.73
2019-06-07T03:06:59.230Z,3.17
2019-06-07T03:09:33.886Z,3.50
2019-06-07T03:12:01.792Z,3.23
2019-06-07T03:14:36.678Z,3.50
2019-06-07T03:17:09.334Z,3.67
2019-06-07T03:19:51.048Z,3.17
2019-06-07T03:22:21.681Z,3.10
2019-06-07T03:24:52.320Z,2.93
2019-06-07T03:27:35.108Z,3.03
2019-06-07T03:29:56.263Z,3.07
2019-06-07T03:32:30.287Z,3.27
2019-06-07T03:34:58.974Z,2.93
2019-06-07T03:37:30.770Z,2.93
2019-06-07T03:40:01.567Z,3.57
2019-06-07T03:42:34.121Z,3.07
2019-06-07T03:45:07.023Z,3.40
2019-06-07T03:47:41.430Z,3.63
2019-06-07T03:50:09.843Z,3.53
2019-06-07T03:52:41.674Z,2.83
2019-06-07T03:55:12.303Z,3.63
2019-06-07T04:00:15.297Z,3.70
2019-06-07T04:02:45.629Z,3.30
2019-06-07T04:05:15.988Z,3.53
2019-06-07T04:07:46.346Z,3.63
2019-06-07T04:10:16.811Z,3.10
2019-06-07T04:12:47.183Z,3.60
2019-06-07T04:15:17.901Z,3.80
2019-06-07T04:18:01.297Z,3.73
2019-06-07T04:20:20.761Z,3.80
2019-06-07T04:22:51.384Z,3.63
2019-06-07T04:25:22.455Z,3.73
2019-06-07T04:27:52.794Z,3.27
2019-06-07T04:30:44.562Z,3.40
2019-06-07T04:33:15.091Z,4.20
2019-06-07T04:35:45.529Z,3.63
2019-06-07T04:38:15.919Z,3.77
2019-06-07T04:40:47.099Z,3.73
2019-06-07T04:43:17.590Z,3.83
2019-06-07T04:45:51.841Z,3.60
2019-06-07T04:48:22.296Z,3.63
2019-06-07T04:50:52.609Z,3.90
2019-06-07T04:53:23.360Z,3.90
2019-06-07T04:55:53.702Z,3.57
2019-06-07T04:58:24.561Z,3.07
2019-06-07T05:01:02.606Z,3.50
2019-06-07T05:03:27.605Z,3.30
2019-06-07T05:05:57.967Z,3.27
2019-06-07T05:08:31.432Z,2.93
2019-06-07T05:11:00.693Z,3.30
2019-06-07T05:13:35.243Z,3.23
2019-06-07T05:16:03.234Z,4.53
2019-06-07T05:18:36.245Z,3.80
2019-06-07T05:21:05.805Z,3.70
2019-06-07T05:24:05.275Z,4.10
2019-06-07T05:26:27.990Z,4.40
2019-06-07T05:28:58.838Z,4.23
2019-06-07T05:31:31.073Z,4.03
2019-06-07T05:34:01.720Z,4.80
2019-06-07T05:36:36.657Z,4.00
2019-06-07T05:39:07.219Z,4.40
2019-06-07T05:41:41.152Z,3.93
2019-06-07T05:44:13.106Z,3.90
2019-06-07T05:46:46.675Z,4.20
2019-06-07T05:49:14.144Z,3.43
2019-06-07T05:51:45.282Z,3.80
2019-06-07T05:54:15.866Z,3.13
2019-06-07T05:56:46.230Z,3.17
2019-06-07T05:59:16.659Z,3.00
2019-06-07T06:01:58.958Z,3.13
2019-06-07T06:04:19.340Z,3.07
2019-06-07T06:06:49.739Z,2.83
2019-06-07T06:09:20.427Z,3.30
2019-06-07T06:12:01.517Z,4.70
2019-06-07T06:14:23.282Z,3.50
2019-06-07T06:16:53.657Z,3.13
2019-06-07T06:19:24.020Z,2.80
2019-06-07T06:21:54.384Z,3.23
2019-06-07T06:24:24.809Z,3.17
2019-06-07T06:27:12.876Z,3.13
2019-06-07T06:29:27.208Z,3.30
2019-06-07T06:34:29.685Z,3.00
2019-06-07T06:37:00.083Z,2.60
2019-06-07T06:39:30.833Z,2.97
2019-06-07T06:42:03.851Z,1.57
2019-06-07T06:44:34.226Z,1.57
2019-06-07T06:47:04.963Z,2.00
2019-06-07T06:49:35.316Z,1.00
2019-06-07T06:52:05.744Z,1.10
2019-06-07T06:54:42.977Z,2.50
2019-06-07T06:57:19.725Z,1.77
2019-06-07T06:59:41.780Z,1.50
2019-06-07T07:02:12.957Z,1.20
2019-06-07T07:04:45.532Z,0.93
2019-06-07T07:07:15.797Z,1.63
2019-06-07T07:09:51.097Z,1.87
2019-06-07T07:12:18.734Z,0.93
2019-06-07T07:14:52.157Z,1.50
2019-06-07T07:17:44.740Z,1.17
2019-06-07T07:19:55.691Z,1.00
2019-06-07T07:22:26.319Z,0.90
2019-06-07T07:24:56.730Z,0.83
2019-06-07T07:27:27.195Z,1.20
2019-06-07T07:30:34.955Z,1.00
2019-06-07T07:32:29.673Z,1.23
2019-06-07T07:35:00.855Z,1.20
2019-06-07T07:37:32.170Z,1.20
2019-06-07T07:40:54.942Z,1.20
2019-06-07T07:42:35.036Z,1.50
2019-06-07T07:45:07.647Z,1.77
2019-06-07T07:47:58.430Z,2.20
2019-06-07T07:50:10.469Z,1.47
2019-06-07T07:52:40.833Z,2.40
2019-06-07T07:55:11.252Z,1.60
2019-06-07T07:57:41.630Z,2.53
2019-06-07T08:00:49.614Z,2.20
2019-06-07T08:02:48.819Z,1.87
2019-06-07T08:05:28.812Z,2.17
2019-06-07T08:07:53.083Z,2.20
2019-06-07T08:10:22.240Z,2.23
2019-06-07T08:13:14.154Z,1.93
2019-06-07T08:15:25.500Z,2.37
2019-06-07T08:18:00.445Z,3.17
2019-06-07T08:20:28.114Z,2.97
2019-06-07T08:23:01.148Z,2.33
2019-06-07T08:25:30.907Z,2.57
2019-06-07T08:28:01.299Z,3.13
2019-06-07T08:30:49.945Z,2.33
2019-06-07T08:33:24.839Z,3.20
2019-06-07T08:36:05.950Z,2.00
2019-06-07T08:38:24.986Z,2.70
2019-06-07T08:40:41.043Z,3.00
2019-06-07T08:43:19.927Z,2.63
2019-06-07T08:45:44.494Z,2.57
2019-06-07T08:48:27.568Z,2.23
2019-06-07T08:50:46.954Z,2.37
2019-06-07T08:53:17.348Z,2.27
2019-06-07T08:55:47.711Z,3.13
2019-06-07T08:58:18.099Z,2.63
2019-06-07T09:00:48.833Z,2.33
2019-06-07T09:03:19.213Z,3.00
2019-06-07T09:05:49.559Z,2.50
2019-06-07T09:08:29.951Z,2.57
2019-06-07T09:10:54.077Z,2.27
2019-06-07T09:13:24.138Z,2.83
2019-06-07T09:15:56.057Z,3.00
2019-06-07T09:18:44.825Z,2.60
2019-06-07T09:21:01.216Z,2.13
2019-06-07T09:23:31.320Z,2.67
2019-06-07T09:26:15.351Z,2.57
2019-06-07T09:28:34.313Z,2.73
2019-06-07T09:31:09.887Z,3.03
2019-06-07T09:33:36.900Z,2.93
2019-06-07T09:36:11.963Z,2.00
2019-06-07T09:38:39.750Z,2.40
2019-06-07T09:41:10.360Z,2.20
2019-06-07T09:44:19.043Z,2.30
2019-06-07T09:46:16.095Z,2.10
2019-06-07T09:49:10.623Z,2.40
2019-06-07T09:51:20.034Z,2.67
2019-06-07T09:53:49.135Z,3.10
2019-06-07T09:56:19.472Z,2.53
2019-06-07T09:58:52.649Z,3.23
2019-06-07T10:01:21.899Z,2.80
2019-06-07T10:03:52.337Z,2.00
2019-06-07T10:06:22.994Z,2.20
2019-06-07T10:10:08.289Z,2.23
2019-06-07T10:11:25.983Z,1.70
2019-06-07T10:13:56.514Z,1.80
2019-06-07T10:16:26.903Z,1.90
2019-06-07T10:18:57.322Z,2.13
2019-06-07T10:21:27.698Z,2.50
2019-06-07T10:23:59.186Z,2.23
2019-06-07T10:26:29.640Z,2.50
2019-06-07T10:28:59.976Z,2.50
2019-06-07T10:31:30.630Z,2.10
2019-06-07T10:34:02.119Z,1.93
2019-06-07T10:36:32.764Z,1.80
2019-06-07T10:39:04.710Z,2.10
2019-06-07T10:41:35.468Z,2.13
2019-06-07T10:44:07.186Z,1.90
2019-06-07T10:46:37.641Z,1.40
2019-06-07T10:49:08.055Z,2.40
2019-06-07T10:51:38.423Z,1.60
2019-06-07T10:54:23.199Z,2.00
2019-06-07T10:56:41.057Z,2.00
2019-06-07T10:59:11.886Z,1.40
2019-06-07T11:01:43.007Z,1.97
2019-06-07T11:04:13.914Z,1.90
2019-06-07T11:06:44.245Z,1.93
2019-06-07T11:09:15.016Z,1.63
2019-06-07T11:11:45.357Z,1.70
2019-06-07T11:14:16.001Z,1.40
2019-06-07T11:16:46.378Z,1.40
2019-06-07T11:19:18.486Z,1.60
2019-06-07T11:21:48.831Z,1.70
2019-06-07T11:24:24.437Z,1.60
2019-06-07T11:26:51.710Z,1.40
2019-06-07T11:29:22.040Z,2.07
2019-06-07T11:31:52.721Z,2.23
2019-06-07T11:34:23.093Z,2.00
2019-06-07T11:36:53.478Z,1.93
2019-06-07T11:39:23.818Z,1.50
2019-06-07T11:41:54.193Z,1.47
2019-06-07T11:44:24.835Z,1.40
2019-06-07T11:46:55.769Z,1.70
2019-06-07T11:49:26.105Z,1.40
2019-06-07T11:51:56.533Z,1.50
2019-06-07T11:54:27.270Z,2.40
2019-06-07T11:56:57.762Z,1.47
2019-06-07T11:59:28.148Z,1.90
2019-06-07T12:01:58.515Z,1.93
2019-06-07T12:04:34.690Z,1.30
2019-06-07T12:07:01.460Z,1.87
2019-06-07T12:09:31.843Z,1.20
2019-06-07T12:12:02.591Z,1.50
2019-06-07T12:14:33.313Z,1.60
2019-06-07T12:17:04.026Z,2.10
2019-06-07T12:19:34.446Z,1.90
2019-06-07T12:22:05.249Z,1.50
2019-06-07T12:24:35.951Z,1.90
2019-06-07T12:27:06.581Z,1.73
2019-06-07T12:29:36.922Z,1.40
2019-06-07T12:32:07.284Z,1.70
2019-06-07T12:34:38.002Z,1.90
2019-06-07T12:37:08.393Z,1.83
2019-06-07T12:39:38.750Z,1.70
2019-06-07T12:42:09.139Z,1.60
2019-06-07T12:44:39.532Z,1.90
2019-06-07T12:47:12.788Z,1.87
2019-06-07T12:49:43.537Z,1.70
2019-06-07T12:52:17.652Z,1.63
2019-06-07T12:54:46.269Z,2.27
2019-06-07T12:57:17.861Z,2.20
2019-06-07T12:59:48.661Z,1.77
2019-06-07T13:02:20.046Z,2.00
2019-06-07T13:04:51.519Z,1.93
2019-06-07T13:07:24.287Z,2.23
2019-06-07T13:09:54.751Z,2.20
2019-06-07T13:12:25.438Z,1.90
2019-06-07T13:14:55.830Z,2.00
2019-06-07T13:17:26.631Z,2.30
2019-06-07T13:19:57.049Z,2.20
2019-06-07T13:22:29.123Z,2.17
2019-06-07T13:24:59.805Z,2.00
2019-06-07T13:27:33.370Z,1.90
2019-06-07T13:30:09.634Z,2.00
2019-06-07T13:32:34.965Z,1.83
2019-06-07T13:35:07.577Z,1.80
2019-06-07T13:37:38.364Z,1.67
2019-06-07T13:40:08.740Z,2.03
2019-06-07T13:42:39.272Z,2.27
2019-06-07T13:45:09.965Z,1.90
2019-06-07T13:47:40.622Z,2.23
2019-06-07T13:50:11.021Z,1.93
2019-06-07T13:52:42.105Z,2.20
2019-06-07T13:55:13.205Z,1.70
2019-06-07T13:57:43.597Z,2.33
2019-06-07T14:00:14.387Z,2.27
2019-06-07T14:02:44.826Z,2.07
2019-06-07T14:05:15.525Z,2.00
2019-06-07T14:07:45.925Z,1.97
2019-06-07T14:10:16.661Z,2.07
2019-06-07T14:12:47.111Z,2.00
2019-06-07T14:15:20.430Z,1.80
2019-06-07T14:17:51.367Z,2.23
2019-06-07T14:20:28.606Z,1.50
2019-06-07T14:22:54.784Z,2.00
2019-06-07T14:25:25.534Z,2.40
2019-06-07T14:27:56.581Z,2.20
2019-06-07T14:30:28.447Z,2.17
2019-06-07T14:32:59.156Z,2.40
2019-06-07T14:35:30.861Z,2.70
2019-06-07T14:38:01.407Z,1.83
2019-06-07T14:40:32.014Z,2.00
2019-06-07T14:43:02.837Z,1.70
2019-06-07T14:45:34.331Z,1.90
2019-06-07T14:48:05.417Z,1.50
2019-06-07T14:50:35.814Z,1.60
2019-06-07T14:53:06.178Z,2.10
2019-06-07T14:55:36.523Z,1.50
2019-06-07T14:58:06.994Z,1.67
2019-06-07T15:00:43.922Z,2.00
2019-06-07T15:03:15.481Z,1.93
2019-06-07T15:05:45.880Z,1.60
2019-06-07T15:08:16.249Z,2.13
2019-06-07T15:10:46.963Z,2.00
2019-06-07T15:13:17.334Z,1.93
2019-06-07T15:15:47.802Z,1.73
2019-06-07T15:18:18.157Z,2.33
2019-06-07T15:20:48.513Z,2.50
2019-06-07T15:23:19.270Z,1.83
2019-06-07T15:25:49.661Z,2.10
2019-06-07T15:28:20.044Z,1.97
2019-06-07T15:30:50.400Z,2.43
2019-06-07T15:33:20.855Z,2.10
2019-06-07T15:35:51.595Z,2.60
2019-06-07T15:38:22.320Z,2.50
2019-06-07T15:40:53.069Z,2.37
2019-06-07T15:43:24.280Z,2.33
2019-06-07T15:45:54.671Z,2.37
2019-06-07T15:48:25.018Z,3.30
2019-06-07T15:50:55.791Z,2.70
2019-06-07T15:53:26.180Z,2.70
2019-06-07T15:55:56.625Z,2.73
2019-06-07T15:58:27.048Z,2.43
2019-06-07T16:00:58.141Z,2.67
2019-06-07T16:03:28.591Z,2.63
2019-06-07T16:05:58.980Z,2.40
2019-06-07T16:08:29.815Z,2.30
2019-06-07T16:11:00.159Z,2.70
2019-06-07T16:13:30.931Z,2.43
2019-06-07T16:16:01.769Z,2.70
2019-06-07T16:18:33.197Z,2.70
2019-06-07T16:21:03.714Z,2.73
2019-06-07T16:23:35.691Z,2.70
2019-06-07T16:26:06.532Z,3.07
2019-06-07T16:28:38.294Z,2.33
2019-06-07T16:31:08.841Z,2.90
2019-06-07T16:33:39.208Z,2.80
2019-06-07T16:36:09.638Z,2.50
2019-06-07T16:38:40.418Z,2.87
2019-06-07T16:41:10.761Z,2.93
2019-06-07T16:43:42.554Z,3.00
2019-06-07T16:46:13.233Z,3.13
2019-06-07T16:48:45.048Z,3.20
2019-06-07T16:51:16.034Z,2.87
2019-06-07T16:53:46.772Z,3.60
2019-06-07T16:56:17.961Z,3.07
2019-06-07T16:58:48.781Z,3.47
2019-06-07T17:01:19.468Z,2.83
2019-06-07T17:03:49.882Z,3.60
2019-06-07T17:06:20.763Z,3.20
2019-06-07T17:08:51.122Z,3.03
2019-06-07T17:11:21.800Z,3.17
2019-06-07T17:13:52.185Z,3.00
2019-06-07T17:16:22.607Z,3.60
2019-06-07T17:18:53.297Z,3.70
2019-06-07T17:21:23.702Z,3.40
2019-06-07T17:23:54.393Z,3.83
2019-06-07T17:26:25.200Z,3.30
2019-06-07T17:28:55.567Z,3.93
2019-06-07T17:31:25.956Z,4.00
2019-06-07T17:33:56.333Z,3.80
2019-06-07T17:36:27.252Z,3.83
2019-06-07T17:38:57.596Z,3.50
2019-06-07T17:41:28.016Z,4.30
2019-06-07T17:44:00.408Z,4.10
2019-06-07T17:46:30.487Z,4.13
2019-06-07T17:49:01.831Z,3.83
2019-06-07T17:51:32.202Z,4.27
2019-06-07T17:54:02.623Z,4.10
2019-06-07T17:56:32.999Z,4.50
2019-06-07T17:59:04.040Z,4.20
2019-06-07T18:01:41.581Z,5.00
2019-06-07T18:04:06.876Z,4.77
2019-06-07T18:06:37.270Z,5.60
2019-06-07T18:09:13.966Z,5.57
2019-06-07T18:11:43.754Z,5.57
2019-06-07T18:14:14.761Z,6.33
2019-06-07T18:16:46.441Z,6.40
2019-06-07T18:19:16.925Z,6.50
2019-06-07T18:21:47.312Z,6.00
2019-06-07T18:24:17.726Z,7.33
2019-06-07T18:26:48.414Z,7.47
2019-06-07T18:29:18.935Z,7.07
2019-06-07T18:31:49.297Z,7.23
2019-06-07T18:34:19.663Z,7.83
2019-06-07T18:36:51.052Z,8.07
2019-06-07T18:39:21.620Z,8.13
2019-06-07T18:41:53.243Z,8.27
2019-06-07T18:44:23.759Z,8.00
2019-06-07T18:46:54.651Z,9.13
2019-06-07T18:49:24.998Z,8.97
2019-06-07T18:52:12.757Z,8.87
2019-06-07T18:54:55.570Z,8.87
2019-06-07T18:57:26.180Z,8.80
2019-06-07T18:59:56.935Z,9.80
2019-06-07T19:02:27.390Z,10.43
2019-06-07T19:04:58.394Z,10.40
2019-06-07T19:07:28.809Z,12.87
2019-06-07T19:09:59.570Z,11.00
2019-06-07T19:12:30.464Z,11.30
2019-06-07T19:15:01.400Z,10.73
2019-06-07T19:17:32.279Z,11.10
2019-06-07T19:20:07.552Z,11.40
2019-06-07T19:22:37.935Z,11.70
2019-06-07T19:25:09.754Z,12.40
2019-06-07T19:27:40.173Z,13.00
2019-06-07T19:30:12.272Z,13.80
2019-06-07T19:32:42.689Z,12.10
2019-06-07T19:35:13.429Z,12.97
2019-06-07T19:37:44.319Z,13.87
2019-06-07T19:40:14.755Z,14.20
2019-06-07T19:42:45.177Z,13.60
2019-06-07T19:45:29.595Z,13.70
2019-06-07T19:47:47.763Z,13.00
2019-06-07T19:50:18.916Z,14.53
2019-06-07T19:52:49.364Z,14.33
2019-06-07T19:55:20.133Z,14.03
2019-06-07T19:57:50.985Z,14.20
2019-06-07T20:00:22.069Z,14.23
2019-06-07T20:02:53.637Z,14.70
2019-06-07T20:05:24.464Z,14.70
2019-06-07T20:07:56.364Z,14.57
2019-06-07T20:10:26.835Z,13.40
2019-06-07T20:12:58.653Z,14.20
2019-06-07T20:15:29.839Z,14.80
2019-06-07T20:18:01.241Z,14.20
2019-06-07T20:20:32.084Z,13.40
2019-06-07T20:23:03.058Z,13.87
2019-06-07T20:25:33.564Z,13.30
2019-06-07T20:28:05.413Z,13.50
2019-06-07T20:30:36.044Z,12.30
2019-06-07T20:33:08.018Z,11.73
2019-06-07T20:35:40.298Z,12.70
2019-06-07T20:38:11.037Z,13.47
2019-06-07T20:40:41.487Z,12.90
2019-06-07T20:43:12.184Z,13.80
2019-06-07T20:45:42.824Z,13.70
2019-06-07T20:48:13.476Z,13.20
2019-06-07T20:50:43.913Z,14.07
2019-06-07T20:53:14.295Z,14.13
2019-06-07T20:55:44.643Z,14.70
2019-06-07T20:58:15.451Z,14.90
2019-06-07T21:00:45.873Z,13.27
2019-06-07T21:03:16.610Z,13.60
2019-06-07T21:05:47.430Z,13.27
2019-06-07T21:08:18.118Z,14.37
2019-06-07T21:10:48.490Z,13.40
2019-06-07T21:13:19.273Z,13.33
2019-06-07T21:15:49.652Z,13.50
2019-06-07T21:18:20.274Z,14.67
2019-06-07T21:20:50.839Z,13.03
2019-06-07T21:23:21.217Z,11.53
2019-06-07T21:25:52.009Z,12.60
2019-06-07T21:28:22.722Z,12.50
2019-06-07T21:30:53.073Z,12.33
2019-06-07T21:33:23.482Z,12.63
2019-06-07T21:35:53.853Z,11.40
2019-06-07T21:38:24.233Z,13.30
2019-06-07T21:40:55.024Z,12.47
2019-06-07T21:43:25.774Z,11.77
2019-06-07T21:46:05.484Z,12.00
2019-06-07T21:48:28.736Z,12.53
2019-06-07T21:50:59.159Z,11.70
2019-06-07T21:53:29.556Z,11.53
2019-06-07T21:55:59.933Z,11.83
2019-06-07T21:58:30.288Z,11.23
2019-06-07T22:01:06.727Z,11.90
2019-06-07T22:03:37.620Z,11.93
2019-06-07T22:06:09.573Z,12.20
2019-06-07T22:08:40.321Z,11.80
2019-06-07T22:11:12.205Z,11.70
2019-06-07T22:13:42.857Z,13.07
2019-06-07T22:16:27.962Z,12.20
2019-06-07T22:18:45.621Z,12.30
2019-06-07T22:21:16.044Z,12.87
2019-06-07T22:23:46.435Z,12.13
2019-06-07T22:26:16.835Z,12.00
2019-06-07T22:28:47.511Z,12.80
2019-06-07T22:31:19.285Z,11.57
2019-06-07T22:33:49.787Z,12.87
2019-06-07T22:36:20.460Z,11.73
2019-06-07T22:38:51.400Z,11.93
2019-06-07T22:41:21.799Z,12.40
2019-06-07T22:43:52.490Z,12.50
2019-06-07T22:46:36.336Z,12.30
2019-06-07T22:48:55.013Z,13.47
2019-06-07T22:51:25.359Z,12.73
2019-06-07T22:53:55.770Z,12.10
2019-06-07T22:56:39.759Z,13.80
2019-06-07T22:59:14.065Z,13.20
2019-06-07T23:01:42.868Z,12.93
2019-06-07T23:04:14.571Z,13.53
2019-06-07T23:06:45.089Z,12.77
2019-06-07T23:09:17.070Z,14.03
2019-06-07T23:11:47.595Z,13.00
2019-06-07T23:14:17.976Z,13.67
2019-06-07T23:16:55.391Z,14.77
2019-06-07T23:19:20.572Z,13.10
2019-06-07T23:21:51.354Z,14.27
2019-06-07T23:24:21.768Z,13.43
2019-06-07T23:26:52.149Z,13.40
2019-06-07T23:29:22.501Z,14.50
2019-06-07T23:31:53.248Z,14.33
2019-06-07T23:34:24.056Z,15.23
2019-06-07T23:36:54.412Z,13.73
2019-06-07T23:39:24.901Z,16.17
2019-06-07T23:41:55.252Z,14.30
2019-06-07T23:44:25.671Z,14.13
2019-06-07T23:47:10.376Z,13.83
2019-06-07T23:49:28.502Z,15.17
2019-06-07T23:51:58.842Z,15.17
2019-06-07T23:54:29.258Z,16.40
2019-06-07T23:57:00.022Z,14.80
2019-06-07T23:59:30.721Z,15.40
